Time;durP1;ratioP1;P1;durP2;ratioP2;P2;SDS_P1;SDS_P2;PMS_P1;PMS_P2;Temp;Humidity;BMP_temperature;BMP_pressure;BME280_temperature;BME280_humidity;BME280_pressure;Samples;Min_cycle;Max_cycle;Signal;HPM_P1;HPM_P2
2021/07/18 00:01:40;;;;;;;8.83;4.53;;;;;;;20.40;100.00;100163.50;1755753;80;21053;-85
2021/07/18 00:04:07;;;;;;;4.62;3.10;;;;;;;20.36;100.00;100157.03;1735623;81;21297;-87
2021/07/18 00:06:34;;;;;;;6.17;4.08;;;;;;;20.32;100.00;100147.79;1768360;80;21073;-85
2021/07/18 00:09:03;;;;;;;5.95;3.33;;;;;;;20.31;100.00;100145.60;1784336;80;21076;-87
2021/07/18 00:11:29;;;;;;;7.55;3.87;;;;;;;20.31;100.00;100150.34;1745346;81;22248;-85
2021/07/18 00:13:57;;;;;;;7.35;4.60;;;;;;;20.31;100.00;100148.96;1755633;81;21021;-88
2021/07/18 00:16:24;;;;;;;6.20;3.75;;;;;;;20.29;100.00;100146.53;1772199;80;21239;-85
2021/07/18 00:18:50;;;;;;;7.47;4.37;;;;;;;20.28;100.00;100146.91;1795142;79;21553;-87
2021/07/18 00:21:17;;;;;;;7.95;3.87;;;;;;;20.22;100.00;100139.97;1763552;79;21099;-87
2021/07/18 00:23:43;;;;;;;5.53;3.42;;;;;;;20.19;100.00;100141.48;1761916;81;21075;-85
2021/07/18 00:26:10;;;;;;;6.50;3.83;;;;;;;20.17;100.00;100140.44;1762537;80;21096;-87
2021/07/18 00:28:37;;;;;;;5.15;3.35;;;;;;;20.16;100.00;100139.42;1739062;80;20968;-86
2021/07/18 00:31:04;;;;;;;6.92;4.12;;;;;;;20.14;100.00;100136.98;1794245;80;21029;-86
2021/07/18 00:33:30;;;;;;;7.17;3.62;;;;;;;20.14;100.00;100134.21;1778393;80;21052;-87
2021/07/18 00:35:56;;;;;;;6.08;3.95;;;;;;;20.16;100.00;100131.09;1771060;80;21033;-87
2021/07/18 00:38:23;;;;;;;7.47;4.00;;;;;;;20.17;100.00;100133.50;1792895;79;21040;-87
2021/07/18 00:40:51;;;;;;;7.22;4.35;;;;;;;20.16;100.00;100125.55;1786954;79;21020;-85
2021/07/18 00:43:18;;;;;;;8.80;4.47;;;;;;;20.14;100.00;100129.25;1790794;79;21044;-87
2021/07/18 00:45:45;;;;;;;7.35;4.72;;;;;;;20.14;100.00;100120.34;1762599;81;20978;-86
2021/07/18 00:48:13;;;;;;;8.10;4.53;;;;;;;20.13;100.00;100124.29;1786208;80;21047;-87
2021/07/18 00:50:43;;;;;;;7.53;3.98;;;;;;;20.12;100.00;100116.30;1773979;80;21457;-85
2021/07/18 00:53:08;;;;;;;7.85;4.00;;;;;;;20.13;100.00;100121.52;1760305;81;21562;-87
2021/07/18 00:55:39;;;;;;;7.83;3.62;;;;;;;20.10;100.00;100119.45;1764911;80;21063;-85
2021/07/18 00:58:05;;;;;;;6.90;4.15;;;;;;;20.09;100.00;100123.36;1745482;80;21263;-85
2021/07/18 01:00:32;;;;;;;10.58;4.45;;;;;;;20.08;100.00;100118.99;1751533;80;21507;-88
2021/07/18 01:02:58;;;;;;;6.55;4.33;;;;;;;20.07;100.00;100115.97;1745579;81;21006;-88
2021/07/18 01:05:25;;;;;;;5.83;3.92;;;;;;;20.03;100.00;100108.70;1777163;79;21021;-85
2021/07/18 01:07:51;;;;;;;10.28;4.65;;;;;;;20.01;100.00;100120.16;1763815;78;21041;-85
2021/07/18 01:10:19;;;;;;;8.78;4.78;;;;;;;20.00;100.00;100115.76;1782913;79;21568;-85
2021/07/18 01:12:46;;;;;;;10.68;4.62;;;;;;;19.98;100.00;100114.74;1767443;81;21038;-86
2021/07/18 01:15:16;;;;;;;6.17;3.83;;;;;;;19.96;100.00;100112.09;1767766;79;21029;-87
2021/07/18 01:17:42;;;;;;;8.05;4.10;;;;;;;19.93;100.00;100105.28;1771639;78;21064;-87
2021/07/18 01:20:10;;;;;;;7.75;3.98;;;;;;;19.93;100.00;100103.89;1762507;79;21060;-85
2021/07/18 01:22:38;;;;;;;6.58;3.83;;;;;;;19.91;100.00;100105.41;1799060;79;21037;-85
2021/07/18 01:25:06;;;;;;;6.45;3.92;;;;;;;19.87;100.00;100102.51;1799978;78;21092;-85
2021/07/18 01:27:34;;;;;;;8.70;4.70;;;;;;;19.86;100.00;100100.91;1769702;79;21260;-87
2021/07/18 01:30:00;;;;;;;10.28;4.37;;;;;;;19.85;100.00;100102.05;1766522;79;21044;-85
2021/07/18 01:32:27;;;;;;;10.68;4.47;;;;;;;19.83;100.00;100104.95;1775297;79;21633;-87
2021/07/18 01:34:53;;;;;;;8.63;4.50;;;;;;;19.80;100.00;100096.75;1798717;79;21024;-87
2021/07/18 01:37:20;;;;;;;7.40;3.70;;;;;;;19.80;100.00;100095.95;1799782;79;21045;-87
2021/07/18 01:39:47;;;;;;;7.62;4.60;;;;;;;19.79;100.00;100098.51;1799187;79;22372;-85
2021/07/18 01:42:13;;;;;;;5.95;3.60;;;;;;;19.76;100.00;100095.27;1793689;79;21036;-88
2021/07/18 01:44:40;;;;;;;6.50;3.87;;;;;;;19.74;100.00;100097.58;1760568;81;21103;-87
2021/07/18 01:47:08;;;;;;;7.12;3.45;;;;;;;19.72;100.00;100096.31;1715964;80;21033;-85
2021/07/18 01:49:36;;;;;;;8.50;4.40;;;;;;;19.71;100.00;100094.71;1806963;79;21089;-88
2021/07/18 01:52:04;;;;;;;6.97;3.87;;;;;;;19.70;100.00;100094.47;1760912;80;21031;-85
2021/07/18 01:54:30;;;;;;;8.38;3.35;;;;;;;19.68;100.00;100092.62;1754517;80;21028;-85
2021/07/18 01:56:57;;;;;;;5.92;3.72;;;;;;;19.64;100.00;100092.49;1784132;80;20945;-86
2021/07/18 01:59:24;;;;;;;6.42;3.90;;;;;;;19.64;100.00;100092.49;1758308;80;22107;-85
2021/07/18 02:01:51;;;;;;;6.75;3.27;;;;;;;19.64;100.00;100097.23;1767511;79;21228;-87
2021/07/18 02:04:18;;;;;;;5.22;3.75;;;;;;;19.62;100.00;100098.95;1753828;80;21454;-87
2021/07/18 02:06:44;;;;;;;10.18;4.53;;;;;;;19.62;100.00;100098.95;1764144;81;21021;-85
2021/07/18 02:09:11;;;;;;;7.12;4.03;;;;;;;19.62;100.00;100102.31;1786193;79;20970;-87
2021/07/18 02:11:38;;;;;;;8.83;4.47;;;;;;;19.61;100.00;100100.12;1770915;80;21647;-88
2021/07/18 02:14:05;;;;;;;8.08;5.15;;;;;;;19.62;100.00;100101.73;1793504;80;21092;-85
2021/07/18 02:16:31;;;;;;;6.35;3.92;;;;;;;19.59;100.00;100094.70;1778408;80;21049;-85
2021/07/18 02:19:07;;;;;;;12.37;4.42;;;;;;;19.59;100.00;100094.70;1763003;80;21084;-87
2021/07/18 02:21:36;;;;;;;6.67;3.62;;;;;;;19.58;100.00;100093.88;1781259;79;21093;-87
2021/07/18 02:24:02;;;;;;;8.95;4.00;;;;;;;19.58;100.00;100093.88;1761891;81;21043;-85
2021/07/18 02:26:29;;;;;;;9.10;4.15;;;;;;;19.57;100.00;100090.88;1773294;80;21024;-86
2021/07/18 02:28:57;;;;;;;9.28;4.15;;;;;;;19.59;100.00;100094.12;1729838;80;21035;-87
2021/07/18 02:31:24;;;;;;;8.30;4.10;;;;;;;19.60;100.00;100097.11;1768799;80;21073;-88
2021/07/18 02:33:51;;;;;;;7.90;4.20;;;;;;;19.62;100.00;100103.11;1770103;80;21042;-88
2021/07/18 02:36:17;;;;;;;7.83;4.87;;;;;;;19.63;100.00;100104.72;1770524;80;21013;-87
2021/07/18 02:38:44;;;;;;;10.50;4.90;;;;;;;19.66;100.00;100106.81;1790477;79;20960;-87
2021/07/18 02:41:12;;;;;;;6.85;3.80;;;;;;;19.75;100.00;100114.42;1779698;80;20909;-87
2021/07/18 02:43:40;;;;;;;5.85;3.75;;;;;;;19.75;100.00;100114.42;1758408;81;21028;-88
2021/07/18 02:46:07;;;;;;;5.50;3.50;;;;;;;19.81;100.00;100121.15;1760605;80;21074;-85
2021/07/18 02:48:38;;;;;;;6.97;4.10;;;;;;;19.86;100.00;100113.97;1759154;81;21029;-86
2021/07/18 02:51:05;;;;;;;6.50;3.83;;;;;;;19.89;100.00;100110.48;1765750;80;21048;-87
2021/07/18 02:53:34;;;;;;;7.35;4.10;;;;;;;19.93;100.00;100110.00;1782331;80;21376;-87
2021/07/18 02:56:00;;;;;;;8.98;4.62;;;;;;;19.98;100.00;100113.36;1811198;79;21025;-85
2021/07/18 02:58:27;;;;;;;6.25;3.80;;;;;;;20.04;100.00;100120.04;1785059;80;21517;-86
2021/07/18 03:00:54;;;;;;;10.23;5.53;;;;;;;20.09;100.00;100113.66;1740665;80;21120;-85
2021/07/18 03:03:20;;;;;;;7.90;3.95;;;;;;;20.15;100.00;100106.72;1780599;80;21019;-85
2021/07/18 03:05:47;;;;;;;7.05;3.83;;;;;;;20.22;100.00;100106.09;1788373;79;21041;-86
2021/07/18 03:08:15;;;;;;;7.00;4.05;;;;;;;20.30;100.00;100109.88;1782704;79;21045;-85
2021/07/18 03:10:43;;;;;;;7.92;4.53;;;;;;;20.36;100.00;100112.64;1749121;82;21495;-86
2021/07/18 03:13:11;;;;;;;8.50;4.42;;;;;;;20.41;100.00;100109.61;1779459;80;21450;-85
2021/07/18 03:20:31;;;;;;;9.08;3.95;;;;;;;20.69;100.00;100119.90;1850262;77;22679;-86
2021/07/18 03:22:57;;;;;;;9.38;5.22;;;;;;;20.70;100.00;100125.70;1795789;79;21013;-86
2021/07/18 03:25:24;;;;;;;8.23;4.62;;;;;;;20.75;100.00;100126.23;1780256;80;21048;-86
2021/07/18 03:27:50;;;;;;;12.63;5.33;;;;;;;20.85;100.00;100124.91;1772063;80;21034;-86
2021/07/18 03:30:19;;;;;;;7.60;4.55;;;;;;;20.94;100.00;100128.30;1763926;80;21049;-86
2021/07/18 03:32:45;;;;;;;9.48;5.15;;;;;;;21.00;100.00;100136.60;1750583;82;21045;-84
2021/07/18 03:35:12;;;;;;;8.50;4.70;;;;;;;21.10;100.00;100128.91;1699255;83;21058;-87
2021/07/18 03:37:40;;;;;;;8.53;4.65;;;;;;;21.20;100.00;100126.98;1670792;84;21068;-84
2021/07/18 03:40:10;;;;;;;12.80;4.83;;;;;;;21.28;100.00;100121.81;1699129;83;21073;-84
2021/07/18 03:42:37;;;;;;;7.87;4.08;;;;;;;21.37;100.00;100126.61;1726222;83;21117;-86
2021/07/18 03:45:06;;;;;;;8.55;4.53;;;;;;;21.50;100.00;100123.75;1728894;83;21081;-85
2021/07/18 03:47:33;;;;;;;11.45;5.28;;;;;;;21.62;100.00;100123.64;1701407;83;21072;-85
2021/07/18 03:49:59;;;;;;;8.40;4.53;;;;;;;21.72;100.00;100123.66;1706470;83;21490;-85
2021/07/18 03:52:26;;;;;;;8.83;4.45;;;;;;;21.82;100.00;100118.92;1699400;83;21160;-86
2021/07/18 03:54:52;;;;;;;8.33;4.75;;;;;;;21.94;100.00;100122.17;1694445;83;20984;-87
2021/07/18 03:57:19;;;;;;;10.80;5.28;;;;;;;22.04;100.00;100119.60;1710560;83;21116;-85
2021/07/18 03:59:45;;;;;;;9.45;5.00;;;;;;;22.15;100.00;100121.21;1718270;83;21100;-88
2021/07/18 04:02:12;;;;;;;9.93;5.10;;;;;;;22.28;100.00;100116.36;1717872;83;21072;-85
2021/07/18 04:04:39;;;;;;;11.45;5.10;;;;;;;22.41;100.00;100116.41;1698071;84;21058;-87
2021/07/18 04:07:07;;;;;;;7.60;4.67;;;;;;;22.53;100.00;100119.63;1681017;84;21073;-87
2021/07/18 04:09:34;;;;;;;7.42;4.50;;;;;;;22.67;100.00;100119.08;1716157;83;21029;-86
2021/07/18 04:12:01;;;;;;;7.08;4.55;;;;;;;22.76;100.00;100113.49;1720173;82;21075;-87
2021/07/18 04:14:27;;;;;;;6.50;3.92;;;;;;;22.88;100.00;100111.72;1710136;84;21076;-86
2021/07/18 04:16:56;;;;;;;6.78;3.80;;;;;;;23.02;100.00;100118.14;1721821;82;20984;-85
2021/07/18 04:19:23;;;;;;;5.62;3.72;;;;;;;23.21;100.00;100122.84;1725014;82;21103;-86
2021/07/18 04:21:51;;;;;;;6.03;4.00;;;;;;;23.38;100.00;100112.56;1696553;83;21032;-86
2021/07/18 04:24:17;;;;;;;9.03;4.10;;;;;;;23.56;99.57;100109.45;1732943;82;21067;-86
2021/07/18 04:26:45;;;;;;;7.22;4.08;;;;;;;23.73;98.55;100113.72;1726844;81;21620;-87
2021/07/18 04:29:11;;;;;;;7.65;4.08;;;;;;;23.89;97.41;100116.34;1711982;83;21061;-86
2021/07/18 04:31:38;;;;;;;5.75;4.10;;;;;;;24.02;96.37;100116.30;1723809;83;21032;-86
2021/07/18 04:34:04;;;;;;;6.60;3.62;;;;;;;24.15;95.15;100116.06;1719478;82;21064;-86
2021/07/18 04:36:31;;;;;;;6.62;3.70;;;;;;;24.29;94.25;100115.45;1711758;83;21066;-87
2021/07/18 04:38:59;;;;;;;5.97;3.75;;;;;;;24.43;93.47;100118.38;1704773;83;21048;-86
2021/07/18 04:41:25;;;;;;;7.17;3.85;;;;;;;24.55;92.73;100120.15;1723951;83;21079;-86
2021/07/18 04:43:53;;;;;;;9.03;5.08;;;;;;;24.66;91.83;100112.70;1697133;83;21080;-87
2021/07/18 04:46:19;;;;;;;7.28;4.50;;;;;;;24.75;90.50;100113.17;1696683;83;21059;-87
2021/07/18 04:48:45;;;;;;;7.55;4.17;;;;;;;24.84;89.89;100119.26;1712441;83;21128;-86
2021/07/18 04:51:12;;;;;;;7.92;4.65;;;;;;;24.95;89.14;100113.78;1724231;83;21060;-87
2021/07/18 04:53:39;;;;;;;6.85;4.10;;;;;;;25.04;88.75;100114.84;1711833;82;20930;-87
2021/07/18 04:56:06;;;;;;;7.90;4.60;;;;;;;25.05;88.28;100119.27;1724002;81;21505;-87
2021/07/18 04:58:33;;;;;;;5.92;4.22;;;;;;;25.08;88.15;100122.68;1726430;83;20946;-87
2021/07/18 05:01:01;;;;;;;7.58;3.95;;;;;;;25.16;88.22;100127.13;1730064;81;21009;-87
2021/07/18 05:03:28;;;;;;;7.70;4.83;;;;;;;25.27;88.10;100128.07;1751296;81;20988;-88
2021/07/18 05:05:56;;;;;;;7.78;4.15;;;;;;;25.37;88.04;100132.14;1753910;81;21581;-87
2021/07/18 05:08:22;;;;;;;8.08;4.42;;;;;;;25.42;87.71;100130.95;1729434;81;21087;-88
2021/07/18 05:10:50;;;;;;;7.62;4.08;;;;;;;25.43;87.37;100133.98;1723464;82;21072;-88
2021/07/18 05:13:17;;;;;;;9.90;4.92;;;;;;;25.45;87.41;100129.59;1740690;81;21044;-88
2021/07/18 05:15:43;;;;;;;8.33;4.80;;;;;;;25.48;86.98;100128.02;1716974;82;21032;-88
2021/07/18 05:18:12;;;;;;;9.35;5.85;;;;;;;25.51;86.78;100128.63;1701020;83;21048;-87
2021/07/18 05:20:40;;;;;;;10.00;5.35;;;;;;;25.55;87.03;100133.66;1740749;81;21032;-87
2021/07/18 05:23:07;;;;;;;8.93;5.00;;;;;;;25.58;86.68;100139.88;1732374;81;21107;-86
2021/07/18 05:25:34;;;;;;;9.95;5.33;;;;;;;25.62;86.81;100139.31;1746022;81;21035;-87
2021/07/18 05:28:00;;;;;;;10.45;5.60;;;;;;;25.71;85.99;100142.55;1754350;81;20936;-88
2021/07/18 05:30:27;;;;;;;11.70;5.75;;;;;;;25.74;85.38;100141.80;1753108;81;21040;-88
2021/07/18 05:32:53;;;;;;;12.95;5.80;;;;;;;25.78;85.46;100141.00;1709474;81;21524;-86
2021/07/18 05:35:20;;;;;;;10.85;5.45;;;;;;;25.85;85.19;100143.84;1721996;82;21071;-87
2021/07/18 05:37:46;;;;;;;11.48;5.58;;;;;;;25.93;85.08;100134.31;1728858;81;20963;-87
2021/07/18 05:40:13;;;;;;;9.15;4.90;;;;;;;26.07;84.94;100138.60;1728136;82;20961;-87
2021/07/18 05:42:40;;;;;;;11.63;5.37;;;;;;;26.20;84.32;100141.85;1734623;82;21497;-89
2021/07/18 05:45:11;;;;;;;9.28;4.90;;;;;;;26.27;83.48;100140.48;1731579;82;21037;-87
2021/07/18 05:47:38;;;;;;;8.30;4.72;;;;;;;26.36;83.63;100135.94;1719189;82;21473;-89
2021/07/18 05:50:08;;;;;;;8.78;4.70;;;;;;;26.50;83.60;100135.95;1759389;81;21032;-86
2021/07/18 05:52:35;;;;;;;19.52;6.30;;;;;;;26.69;82.66;100135.45;1721365;82;20955;-87
2021/07/18 05:55:02;;;;;;;11.08;5.85;;;;;;;26.84;82.04;100130.68;1726228;82;21079;-88
2021/07/18 05:57:29;;;;;;;9.38;4.55;;;;;;;26.94;81.17;100129.89;1693311;82;21049;-88
2021/07/18 05:59:55;;;;;;;8.95;5.37;;;;;;;27.00;80.92;100134.71;1695776;84;21548;-88
2021/07/18 06:02:21;;;;;;;8.03;5.60;;;;;;;27.09;80.31;100135.70;1753053;81;21039;-87
2021/07/18 06:04:48;;;;;;;9.70;5.45;;;;;;;27.25;80.91;100132.55;1706296;82;21070;-87
2021/07/18 06:07:15;;;;;;;8.08;5.75;;;;;;;27.49;79.79;100127.31;1744557;81;21491;-87
2021/07/18 06:09:41;;;;;;;8.53;5.47;;;;;;;27.66;78.53;100128.68;1755448;81;21047;-87
2021/07/18 06:12:09;;;;;;;10.65;5.40;;;;;;;27.78;77.37;100128.86;1710442;82;21601;-89
2021/07/18 06:14:37;;;;;;;8.40;4.87;;;;;;;27.83;76.26;100125.67;1703020;84;21048;-87
2021/07/18 06:17:04;;;;;;;7.10;4.75;;;;;;;27.90;76.04;100124.06;1702770;84;21043;-87
2021/07/18 06:19:31;;;;;;;6.90;4.25;;;;;;;28.01;75.94;100131.83;1723494;81;21083;-88
2021/07/18 06:21:58;;;;;;;7.85;5.10;;;;;;;28.14;75.87;100128.80;1733128;81;20949;-89
2021/07/18 06:24:25;;;;;;;6.10;4.25;;;;;;;28.32;74.84;100122.30;1731014;82;21587;-88
2021/07/18 06:26:51;;;;;;;9.18;4.78;;;;;;;28.39;74.34;100132.07;1731270;82;21337;-88
2021/07/18 06:29:18;;;;;;;7.58;4.90;;;;;;;28.46;73.37;100136.28;1731522;82;21032;-89
2021/07/18 06:31:45;;;;;;;8.78;4.87;;;;;;;28.55;73.77;100137.26;1736080;81;21064;-88
2021/07/18 06:34:11;;;;;;;7.90;5.42;;;;;;;28.72;73.79;100136.35;1762314;81;20984;-89
2021/07/18 06:36:38;;;;;;;7.15;4.60;;;;;;;28.91;73.16;100137.23;1733098;81;20981;-87
2021/07/18 06:39:04;;;;;;;8.48;5.12;;;;;;;29.01;72.20;100135.56;1732489;82;21111;-87
2021/07/18 06:41:31;;;;;;;9.33;4.67;;;;;;;29.05;71.65;100128.48;1702861;83;21043;-88
2021/07/18 06:43:57;;;;;;;6.80;4.78;;;;;;;29.15;71.25;100127.63;1701244;83;21048;-87
2021/07/18 06:46:24;;;;;;;7.37;4.85;;;;;;;29.33;71.55;100126.09;1731940;81;21429;-87
2021/07/18 06:48:51;;;;;;;9.70;5.00;;;;;;;29.56;70.83;100126.26;1733498;82;21047;-88
2021/07/18 06:51:18;;;;;;;6.08;4.05;;;;;;;29.65;69.43;100122.97;1731979;82;21340;-89
2021/07/18 06:53:44;;;;;;;7.60;4.37;;;;;;;29.74;69.38;100121.08;1732090;82;21032;-88
2021/07/18 06:56:11;;;;;;;7.10;4.20;;;;;;;29.88;68.34;100125.16;1732142;81;20932;-89
2021/07/18 06:58:39;;;;;;;8.28;3.95;;;;;;;30.00;68.45;100123.20;1702755;82;21501;-88
2021/07/18 07:01:05;;;;;;;9.15;4.65;;;;;;;30.19;68.07;100123.78;1754727;81;21053;-89
2021/07/18 07:03:32;;;;;;;6.35;4.62;;;;;;;30.35;67.42;100122.60;1759438;81;21500;-89
2021/07/18 07:05:59;;;;;;;6.92;4.17;;;;;;;30.57;67.14;100123.73;1702580;84;21036;-88
2021/07/18 07:08:26;;;;;;;7.33;4.85;;;;;;;30.68;65.44;100132.81;1731842;82;21581;-88
2021/07/18 07:10:53;;;;;;;8.58;5.10;;;;;;;30.72;63.76;100131.37;1726528;83;21025;-88
2021/07/18 07:13:19;;;;;;;7.75;4.45;;;;;;;30.70;64.75;100127.55;1701174;83;21061;-88
2021/07/18 07:15:47;;;;;;;5.92;3.92;;;;;;;30.71;63.84;100124.91;1740801;82;21072;-88
2021/07/18 07:18:13;;;;;;;6.42;4.33;;;;;;;30.85;63.37;100121.91;1766318;80;20909;-89
2021/07/18 07:20:40;;;;;;;6.55;3.80;;;;;;;30.95;61.81;100117.33;1731732;82;21052;-89
2021/07/18 07:23:06;;;;;;;7.55;4.50;;;;;;;31.11;60.39;100120.92;1731608;82;21536;-88
2021/07/18 07:25:32;;;;;;;7.67;4.62;;;;;;;31.16;60.30;100121.84;1762396;81;21000;-87
2021/07/18 07:28:01;;;;;;;5.90;3.92;;;;;;;31.23;60.78;100121.72;1731774;82;20955;-88
2021/07/18 07:30:27;;;;;;;5.70;3.70;;;;;;;31.28;61.70;100131.11;1731744;82;21104;-87
2021/07/18 07:32:54;;;;;;;5.28;3.80;;;;;;;31.43;60.30;100121.81;1727358;82;21049;-89
2021/07/18 07:35:22;;;;;;;5.45;3.80;;;;;;;31.64;60.04;100124.84;1725241;82;21110;-87
2021/07/18 07:37:49;;;;;;;8.83;3.83;;;;;;;31.83;59.46;100129.55;1711570;82;20961;-89
2021/07/18 07:40:17;;;;;;;5.80;3.72;;;;;;;31.95;58.77;100126.11;1713794;82;21076;-87
2021/07/18 07:42:48;;;;;;;6.10;3.87;;;;;;;32.03;59.31;100131.80;1711411;83;21556;-89
2021/07/18 07:45:14;;;;;;;6.95;3.92;;;;;;;32.10;61.57;100137.30;1684958;83;21073;-89
2021/07/18 07:47:41;;;;;;;5.62;3.83;;;;;;;32.12;60.75;100139.08;1712869;83;21077;-87
2021/07/18 07:50:10;;;;;;;7.95;4.00;;;;;;;32.10;60.32;100142.95;1728680;82;21522;-87
2021/07/18 07:52:37;;;;;;;6.53;4.03;;;;;;;31.98;59.67;100143.60;1740959;82;21056;-87
2021/07/18 07:55:05;;;;;;;7.08;4.00;;;;;;;31.89;62.35;100140.52;1711907;82;21079;-88
2021/07/18 07:57:34;;;;;;;5.17;3.58;;;;;;;31.92;59.33;100146.70;1740892;82;21111;-87
2021/07/18 08:00:07;;;;;;;4.60;3.25;;;;;;;31.83;59.60;100154.98;1741151;82;21020;-89
2021/07/18 08:02:36;;;;;;;6.58;3.67;;;;;;;31.74;58.95;100147.67;1714720;82;21096;-88
2021/07/18 08:05:04;;;;;;;4.05;3.10;;;;;;;31.67;58.75;100145.16;1739794;82;21006;-87
2021/07/18 08:07:32;;;;;;;4.97;3.30;;;;;;;31.61;57.81;100152.53;1739234;82;21474;-89
2021/07/18 08:09:59;;;;;;;4.78;3.37;;;;;;;31.65;58.71;100151.87;1741062;82;21029;-89
2021/07/18 08:12:26;;;;;;;3.75;3.05;;;;;;;31.74;58.44;100149.09;1741650;82;21123;-87
2021/07/18 08:14:54;;;;;;;7.25;3.95;;;;;;;31.82;57.20;100146.30;1705099;82;21168;-87
2021/07/18 08:17:20;;;;;;;4.10;3.17;;;;;;;31.92;56.32;100143.88;1714223;82;21059;-88
2021/07/18 08:19:47;;;;;;;3.02;2.42;;;;;;;31.95;55.73;100143.06;1719468;82;21517;-89
2021/07/18 08:22:14;;;;;;;3.98;3.22;;;;;;;31.97;53.80;100146.23;1714243;82;21052;-87
2021/07/18 08:24:41;;;;;;;3.20;2.47;;;;;;;32.02;53.49;100140.07;1735863;82;21049;-88
2021/07/18 08:27:07;;;;;;;2.72;2.45;;;;;;;32.04;51.39;100140.44;1738419;82;21068;-89
2021/07/18 08:29:34;;;;;;;3.12;2.50;;;;;;;32.07;49.83;100144.42;1736628;82;21569;-88
2021/07/18 08:32:01;;;;;;;2.70;2.00;;;;;;;32.11;49.84;100147.36;1679621;82;21601;-89
2021/07/18 08:34:28;;;;;;;3.65;2.55;;;;;;;32.21;49.95;100145.55;1707769;82;20992;-89
2021/07/18 08:36:57;;;;;;;3.33;2.50;;;;;;;32.25;49.64;100144.08;1707292;83;21059;-87
2021/07/18 08:39:24;;;;;;;3.08;2.65;;;;;;;32.33;49.59;100139.86;1728368;82;20975;-87
2021/07/18 08:41:53;;;;;;;3.08;2.10;;;;;;;32.40;48.56;100145.36;1709515;83;21074;-89
2021/07/18 08:44:20;;;;;;;3.87;2.77;;;;;;;32.41;48.33;100145.53;1717232;82;21029;-87
2021/07/18 08:46:46;;;;;;;2.83;1.82;;;;;;;32.39;48.68;100149.41;1704194;82;21057;-89
2021/07/18 08:49:13;;;;;;;3.50;2.22;;;;;;;32.41;47.34;100144.12;1702547;84;21522;-87
2021/07/18 08:51:39;;;;;;;3.35;2.58;;;;;;;32.47;48.33;100149.45;1685862;83;21055;-89
2021/07/18 08:54:07;;;;;;;3.47;2.65;;;;;;;32.52;48.43;100140.48;1695441;83;21204;-87
2021/07/18 08:56:35;;;;;;;2.90;2.52;;;;;;;32.56;48.73;100146.05;1709579;82;21663;-88
2021/07/18 08:59:05;;;;;;;4.35;2.25;;;;;;;32.56;48.39;100138.36;1707469;84;22559;-87
2021/07/18 09:01:37;;;;;;;3.58;2.65;;;;;;;32.66;48.95;100140.77;1713064;82;21029;-87
2021/07/18 09:04:05;;;;;;;3.30;2.77;;;;;;;32.77;49.70;100139.13;1702596;83;21958;-88
2021/07/18 09:06:45;;;;;;;2.70;2.10;;;;;;;32.83;49.33;100140.18;1707498;82;21059;-87
2021/07/18 09:09:17;;;;;;;3.02;2.33;;;;;;;32.83;48.15;100138.77;1728455;78;21040;-89
2021/07/18 09:11:47;;;;;;;3.20;2.80;;;;;;;32.81;48.34;100139.03;1726526;82;21308;-87
2021/07/18 09:14:13;;;;;;;3.45;2.75;;;;;;;32.78;50.14;100140.08;1719191;82;21119;-87
2021/07/18 09:16:41;;;;;;;3.60;2.40;;;;;;;32.78;48.46;100142.13;1714959;82;21495;-89
2021/07/18 09:19:31;;;;;;;3.37;2.70;;;;;;;32.79;48.47;100143.73;1697063;84;21061;-87
2021/07/18 09:22:08;;;;;;;4.83;3.37;;;;;;;32.86;48.20;100135.67;1714062;83;21032;-87
2021/07/18 09:24:46;;;;;;;3.40;2.80;;;;;;;32.95;46.69;100133.83;1679690;82;21080;-89
2021/07/18 09:27:18;;;;;;;3.05;2.50;;;;;;;32.92;47.46;100138.96;1658368;85;21052;-87
2021/07/18 09:30:06;;;;;;;5.72;2.27;;;;;;;32.94;48.27;100139.32;1725245;82;21071;-87
2021/07/18 09:32:36;;;;;;;3.10;2.58;;;;;;;33.02;46.64;100137.73;1736675;82;21097;-88
2021/07/18 09:35:08;;;;;;;2.65;2.02;;;;;;;33.07;46.94;100134.41;1734317;82;21068;-89
2021/07/18 09:37:39;;;;;;;3.58;2.60;;;;;;;33.12;46.83;100131.05;1733106;78;20986;-87
2021/07/18 09:40:24;;;;;;;2.87;2.02;;;;;;;33.25;46.39;100127.67;1721701;82;21076;-87
2021/07/18 09:43:01;;;;;;;3.50;2.60;;;;;;;33.43;44.71;100130.66;1707100;84;21108;-89
2021/07/18 09:45:30;;;;;;;4.03;2.70;;;;;;;33.59;47.53;100131.46;1730664;82;21068;-87
2021/07/18 09:48:04;;;;;;;4.40;3.20;;;;;;;33.63;46.62;100127.10;1727296;82;21080;-88
2021/07/18 09:50:41;;;;;;;6.95;3.62;;;;;;;33.57;45.38;100123.23;1730145;82;21061;-89
2021/07/18 09:53:20;;;;;;;4.05;3.12;;;;;;;33.50;46.26;100124.19;1723308;82;21060;-88
2021/07/18 09:55:59;;;;;;;7.90;3.33;;;;;;;33.47;46.76;100127.12;1709936;82;21112;-89
2021/07/18 09:58:27;;;;;;;4.45;2.98;;;;;;;33.58;48.50;100131.30;1722735;82;21111;-87
2021/07/18 10:00:55;;;;;;;3.75;2.87;;;;;;;33.72;47.16;100128.69;1709449;82;21152;-87
2021/07/18 10:03:24;;;;;;;3.05;2.62;;;;;;;33.76;45.30;100120.10;1697785;82;21064;-88
2021/07/18 10:06:16;;;;;;;4.17;3.05;;;;;;;33.68;45.23;100116.67;1690607;82;20958;-87
2021/07/18 10:09:00;;;;;;;4.37;3.08;;;;;;;33.59;47.07;100113.05;1695372;82;21041;-88
2021/07/18 10:11:28;;;;;;;3.62;2.85;;;;;;;33.60;46.89;100108.17;1737049;82;21545;-89
2021/07/18 10:13:56;;;;;;;5.05;2.87;;;;;;;33.64;46.33;100111.72;1733902;82;21152;-88
2021/07/18 10:16:24;;;;;;;4.72;3.62;;;;;;;33.71;44.98;100103.02;1701722;82;20941;-87
2021/07/18 10:18:52;;;;;;;4.00;2.95;;;;;;;33.94;45.70;100106.84;1737054;81;21061;-89
2021/07/18 10:21:21;;;;;;;3.87;2.98;;;;;;;33.89;45.01;100102.52;1707166;82;21029;-87
2021/07/18 10:23:50;;;;;;;3.95;3.15;;;;;;;33.75;45.10;100093.00;1701482;83;21401;-87
2021/07/18 10:26:26;;;;;;;4.17;3.22;;;;;;;33.74;47.33;100099.29;1720701;82;21085;-89
2021/07/18 10:28:54;;;;;;;4.20;3.27;;;;;;;33.74;44.93;100098.50;1714424;83;21044;-89
2021/07/18 10:31:46;;;;;;;4.40;3.08;;;;;;;33.72;44.87;100097.52;1714609;83;20972;-88
2021/07/18 10:34:12;;;;;;;;;;;;;;;33.65;44.71;100094.88;1728596;82;21028;-88
2021/07/18 10:36:39;;;;;;;4.53;3.10;;;;;;;33.71;45.84;100098.78;1744841;82;20174;-88
2021/07/18 10:39:35;;;;;;;4.70;3.08;;;;;;;33.73;45.75;100104.80;1719817;82;22137;-87
2021/07/18 10:42:04;;;;;;;3.98;2.90;;;;;;;33.78;46.24;100104.84;1729800;82;21518;-89
2021/07/18 10:44:48;;;;;;;5.00;3.37;;;;;;;33.78;44.34;100099.17;1690036;83;21053;-89
2021/07/18 10:47:16;;;;;;;4.05;2.83;;;;;;;33.59;45.47;100100.94;1714596;83;21072;-88
2021/07/18 10:49:54;;;;;;;4.12;2.75;;;;;;;33.29;46.81;100100.07;1718478;82;21076;-88
2021/07/18 10:52:23;;;;;;;3.70;3.05;;;;;;;33.19;47.94;100099.11;1706523;82;21497;-89
2021/07/18 10:54:50;;;;;;;4.10;3.27;;;;;;;33.34;47.16;100098.74;1719293;82;21048;-88
2021/07/18 10:57:25;;;;;;;6.28;3.20;;;;;;;33.50;46.84;100094.45;1702619;84;22123;-88
2021/07/18 10:59:55;;;;;;;4.10;3.52;;;;;;;33.76;45.69;100091.14;1693414;83;21196;-88
2021/07/18 11:02:32;;;;;;;4.53;2.58;;;;;;;34.07;45.53;100089.23;1714461;83;21057;-87
2021/07/18 11:05:02;;;;;;;4.50;3.52;;;;;;;34.23;45.35;100082.73;1703855;84;21069;-89
2021/07/18 11:07:36;;;;;;;5.83;3.90;;;;;;;34.32;45.13;100080.63;1713612;83;21053;-88
2021/07/18 11:10:14;;;;;;;4.47;2.95;;;;;;;34.34;44.93;100078.15;1688252;83;21542;-89
2021/07/18 11:12:45;;;;;;;4.47;2.98;;;;;;;34.46;44.09;100080.20;1707890;82;21113;-88
2021/07/18 11:15:23;;;;;;;3.05;2.70;;;;;;;34.54;45.46;100084.39;1731570;82;21099;-87
2021/07/18 11:18:15;;;;;;;4.20;2.92;;;;;;;34.64;44.07;100077.61;1712361;82;21060;-89
2021/07/18 11:20:54;;;;;;;4.10;3.00;;;;;;;34.53;41.39;100072.89;1703393;84;21108;-89
2021/07/18 11:23:37;;;;;;;3.65;2.58;;;;;;;34.33;41.59;100079.41;1713782;82;21049;-89
2021/07/18 11:26:11;;;;;;;4.03;2.37;;;;;;;34.21;41.30;100073.25;1734898;82;21048;-87
2021/07/18 11:28:39;;;;;;;3.98;2.70;;;;;;;34.19;41.51;100072.91;1734436;82;21103;-88
2021/07/18 11:31:18;;;;;;;3.33;2.45;;;;;;;34.25;39.62;100069.70;1734682;82;21091;-88
2021/07/18 11:34:02;;;;;;;4.60;2.72;;;;;;;34.47;40.58;100063.34;1713754;82;21068;-87